sensor_id;sensor_type;location;lat;lon;timestamp;pressure;altitude;pressure_sealevel;temperature;humidity
39949;BME280;29070;48.102;-1.652;2023-02-22T00:04:46;101139.47;;;5.99;79.25
39949;BME280;29070;48.102;-1.652;2023-02-22T00:09:46;101148.41;;;5.97;79.37
39949;BME280;29070;48.102;-1.652;2023-02-22T00:14:47;101145.00;;;5.96;79.47
39949;BME280;29070;48.102;-1.652;2023-02-22T00:19:48;101138.66;;;5.99;79.67
39949;BME280;29070;48.102;-1.652;2023-02-22T00:24:48;101141.75;;;6.02;79.95
39949;BME280;29070;48.102;-1.652;2023-02-22T00:29:49;101143.44;;;6.11;79.97
39949;BME280;29070;48.102;-1.652;2023-02-22T00:34:53;101162.53;;;6.20;80.30
39949;BME280;29070;48.102;-1.652;2023-02-22T00:39:53;101165.19;;;6.28;80.61
39949;BME280;29070;48.102;-1.652;2023-02-22T00:44:54;101164.56;;;6.35;80.72
39949;BME280;29070;48.102;-1.652;2023-02-22T00:49:54;101168.03;;;6.43;80.74
39949;BME280;29070;48.102;-1.652;2023-02-22T00:54:55;101151.13;;;6.56;81.34
39949;BME280;29070;48.102;-1.652;2023-02-22T00:59:56;101151.50;;;6.69;81.36
39949;BME280;29070;48.102;-1.652;2023-02-22T01:04:57;101150.56;;;6.78;81.57
39949;BME280;29070;48.102;-1.652;2023-02-22T01:09:57;101151.25;;;6.89;81.92
39949;BME280;29070;48.102;-1.652;2023-02-22T01:14:57;101153.03;;;6.96;82.05
39949;BME280;29070;48.102;-1.652;2023-02-22T01:19:58;101149.94;;;7.01;81.83
39949;BME280;29070;48.102;-1.652;2023-02-22T01:24:58;101147.66;;;7.06;82.08
39949;BME280;29070;48.102;-1.652;2023-02-22T01:29:59;101139.22;;;7.12;82.34
39949;BME280;29070;48.102;-1.652;2023-02-22T01:34:59;101149.63;;;7.20;82.00
39949;BME280;29070;48.102;-1.652;2023-02-22T01:40:00;101148.34;;;7.24;82.68
39949;BME280;29070;48.102;-1.652;2023-02-22T01:50:33;101148.34;;;7.33;82.66
39949;BME280;29070;48.102;-1.652;2023-02-22T01:55:37;101149.66;;;7.37;82.32
39949;BME280;29070;48.102;-1.652;2023-02-22T02:00:38;101148.66;;;7.38;82.52
39949;BME280;29070;48.102;-1.652;2023-02-22T02:05:39;101150.66;;;7.44;82.69
39949;BME280;29070;48.102;-1.652;2023-02-22T02:10:41;101152.25;;;7.45;82.57
39949;BME280;29070;48.102;-1.652;2023-02-22T02:15:41;101159.13;;;7.46;83.04
39949;BME280;29070;48.102;-1.652;2023-02-22T02:20:59;101148.34;;;7.49;82.88
39949;BME280;29070;48.102;-1.652;2023-02-22T02:41:35;101132.19;;;7.54;83.81
39949;BME280;29070;48.102;-1.652;2023-02-22T02:52:08;101131.34;;;7.61;83.83
39949;BME280;29070;48.102;-1.652;2023-02-22T02:57:09;101133.31;;;7.68;84.16
39949;BME280;29070;48.102;-1.652;2023-02-22T03:18:19;101115.97;;;7.83;84.40
39949;BME280;29070;48.102;-1.652;2023-02-22T03:23:44;101116.94;;;7.90;84.18
39949;BME280;29070;48.102;-1.652;2023-02-22T03:28:47;101106.31;;;7.92;84.30
39949;BME280;29070;48.102;-1.652;2023-02-22T03:34:03;101097.16;;;7.96;84.46
39949;BME280;29070;48.102;-1.652;2023-02-22T03:39:09;101097.97;;;7.96;84.39
39949;BME280;29070;48.102;-1.652;2023-02-22T03:44:12;101100.06;;;8.01;85.38
39949;BME280;29070;48.102;-1.652;2023-02-22T03:49:19;101093.72;;;8.04;84.32
39949;BME280;29070;48.102;-1.652;2023-02-22T03:54:23;101085.34;;;8.08;84.78
39949;BME280;29070;48.102;-1.652;2023-02-22T03:59:24;101085.81;;;8.12;84.59
39949;BME280;29070;48.102;-1.652;2023-02-22T04:04:26;101084.69;;;8.14;84.49
39949;BME280;29070;48.102;-1.652;2023-02-22T04:09:26;101083.50;;;8.17;84.48
39949;BME280;29070;48.102;-1.652;2023-02-22T04:14:27;101090.06;;;8.21;84.47
39949;BME280;29070;48.102;-1.652;2023-02-22T04:19:27;101087.06;;;8.24;84.82
39949;BME280;29070;48.102;-1.652;2023-02-22T04:24:28;101082.84;;;8.23;84.75
39949;BME280;29070;48.102;-1.652;2023-02-22T04:29:28;101082.47;;;8.26;84.94
39949;BME280;29070;48.102;-1.652;2023-02-22T04:34:29;101088.19;;;8.30;84.65
39949;BME280;29070;48.102;-1.652;2023-02-22T04:39:29;101090.63;;;8.31;84.80
39949;BME280;29070;48.102;-1.652;2023-02-22T04:44:30;101097.50;;;8.32;84.93
39949;BME280;29070;48.102;-1.652;2023-02-22T04:49:30;101094.25;;;8.30;84.84
39949;BME280;29070;48.102;-1.652;2023-02-22T04:54:31;101097.19;;;8.35;84.90
39949;BME280;29070;48.102;-1.652;2023-02-22T04:59:31;101095.19;;;8.37;84.57
39949;BME280;29070;48.102;-1.652;2023-02-22T05:04:32;101098.63;;;8.38;84.75
39949;BME280;29070;48.102;-1.652;2023-02-22T05:09:32;101093.22;;;8.39;84.54
39949;BME280;29070;48.102;-1.652;2023-02-22T05:14:32;101096.81;;;8.38;84.78
39949;BME280;29070;48.102;-1.652;2023-02-22T05:19:33;101096.00;;;8.38;84.85
39949;BME280;29070;48.102;-1.652;2023-02-22T05:24:33;101099.25;;;8.40;84.84
39949;BME280;29070;48.102;-1.652;2023-02-22T05:29:34;101098.47;;;8.39;84.81
39949;BME280;29070;48.102;-1.652;2023-02-22T05:34:34;101096.81;;;8.38;84.92
39949;BME280;29070;48.102;-1.652;2023-02-22T05:39:35;101092.59;;;8.37;85.23
39949;BME280;29070;48.102;-1.652;2023-02-22T05:44:35;101091.25;;;8.42;85.15
39949;BME280;29070;48.102;-1.652;2023-02-22T05:49:35;101093.72;;;8.43;85.28
39949;BME280;29070;48.102;-1.652;2023-02-22T05:54:36;101086.84;;;8.42;85.17
39949;BME280;29070;48.102;-1.652;2023-02-22T05:59:36;101087.69;;;8.43;85.27
39949;BME280;29070;48.102;-1.652;2023-02-22T06:04:36;101089.47;;;8.42;85.18
39949;BME280;29070;48.102;-1.652;2023-02-22T06:09:37;101089.13;;;8.45;85.30
39949;BME280;29070;48.102;-1.652;2023-02-22T06:14:37;101088.97;;;8.47;85.46
39949;BME280;29070;48.102;-1.652;2023-02-22T06:19:40;101083.75;;;8.47;85.44
39949;BME280;29070;48.102;-1.652;2023-02-22T06:24:40;101088.63;;;8.50;85.37
39949;BME280;29070;48.102;-1.652;2023-02-22T06:29:44;101083.22;;;8.51;85.30
39949;BME280;29070;48.102;-1.652;2023-02-22T06:34:45;101080.63;;;8.51;85.37
39949;BME280;29070;48.102;-1.652;2023-02-22T06:39:46;101093.50;;;8.53;85.76
39949;BME280;29070;48.102;-1.652;2023-02-22T06:44:46;101087.47;;;8.52;85.38
39949;BME280;29070;48.102;-1.652;2023-02-22T06:49:57;101084.34;;;8.57;85.53
39949;BME280;29070;48.102;-1.652;2023-02-22T06:54:58;101101.66;;;8.58;85.77
39949;BME280;29070;48.102;-1.652;2023-02-22T06:59:58;101091.03;;;8.59;85.33
39949;BME280;29070;48.102;-1.652;2023-02-22T07:04:59;101102.13;;;8.62;85.62
39949;BME280;29070;48.102;-1.652;2023-02-22T07:09:59;101114.06;;;8.64;85.68
39949;BME280;29070;48.102;-1.652;2023-02-22T07:15:01;101111.44;;;8.64;85.75
39949;BME280;29070;48.102;-1.652;2023-02-22T07:20:01;101118.00;;;8.60;85.56
39949;BME280;29070;48.102;-1.652;2023-02-22T07:25:03;101121.91;;;8.64;85.39
39949;BME280;29070;48.102;-1.652;2023-02-22T07:30:05;101120.75;;;8.67;85.42
39949;BME280;29070;48.102;-1.652;2023-02-22T07:35:16;101123.53;;;8.65;85.50
39949;BME280;29070;48.102;-1.652;2023-02-22T07:40:17;101126.63;;;8.69;85.83
39949;BME280;29070;48.102;-1.652;2023-02-22T07:45:18;101126.44;;;8.70;85.72
39949;BME280;29070;48.102;-1.652;2023-02-22T07:50:21;101136.56;;;8.73;85.53
39949;BME280;29070;48.102;-1.652;2023-02-22T07:55:26;101133.31;;;8.71;85.62
39949;BME280;29070;48.102;-1.652;2023-02-22T08:00:30;101131.47;;;8.80;85.63
39949;BME280;29070;48.102;-1.652;2023-02-22T08:05:32;101140.53;;;8.92;85.92
39949;BME280;29070;48.102;-1.652;2023-02-22T08:10:33;101136.06;;;9.01;86.32
39949;BME280;29070;48.102;-1.652;2023-02-22T08:15:39;101148.53;;;8.99;85.95
39949;BME280;29070;48.102;-1.652;2023-02-22T08:20:40;101153.88;;;9.06;86.20
39949;BME280;29070;48.102;-1.652;2023-02-22T08:25:41;101152.38;;;9.11;85.71
39949;BME280;29070;48.102;-1.652;2023-02-22T08:30:42;101152.19;;;9.13;85.82
39949;BME280;29070;48.102;-1.652;2023-02-22T08:35:42;101153.94;;;9.21;85.70
39949;BME280;29070;48.102;-1.652;2023-02-22T08:40:43;101147.09;;;9.20;85.76
39949;BME280;29070;48.102;-1.652;2023-02-22T08:45:44;101149.44;;;9.29;85.82
39949;BME280;29070;48.102;-1.652;2023-02-22T08:50:44;101150.84;;;9.40;85.79
39949;BME280;29070;48.102;-1.652;2023-02-22T08:55:45;101146.81;;;9.52;86.18
39949;BME280;29070;48.102;-1.652;2023-02-22T09:00:46;101155.59;;;9.60;85.65
39949;BME280;29070;48.102;-1.652;2023-02-22T09:05:47;101145.69;;;9.70;85.66
39949;BME280;29070;48.102;-1.652;2023-02-22T09:10:50;101150.38;;;9.74;85.33
39949;BME280;29070;48.102;-1.652;2023-02-22T09:15:51;101145.59;;;9.78;85.35
39949;BME280;29070;48.102;-1.652;2023-02-22T09:20:52;101152.13;;;9.82;85.21
39949;BME280;29070;48.102;-1.652;2023-02-22T09:25:52;101152.91;;;9.83;85.19
39949;BME280;29070;48.102;-1.652;2023-02-22T09:30:53;101155.03;;;9.87;85.08
39949;BME280;29070;48.102;-1.652;2023-02-22T09:35:53;101152.41;;;9.87;85.15
39949;BME280;29070;48.102;-1.652;2023-02-22T09:51:24;101158.34;;;9.81;85.15
39949;BME280;29070;48.102;-1.652;2023-02-22T09:56:27;101153.72;;;9.83;85.13
39949;BME280;29070;48.102;-1.652;2023-02-22T10:01:44;101150.56;;;9.88;85.49
39949;BME280;29070;48.102;-1.652;2023-02-22T10:12:26;101155.66;;;10.04;85.67
39949;BME280;29070;48.102;-1.652;2023-02-22T10:28:24;101162.09;;;10.02;85.29
39949;BME280;29070;48.102;-1.652;2023-02-22T10:33:38;101161.81;;;10.11;85.59
39949;BME280;29070;48.102;-1.652;2023-02-22T10:38:44;101153.13;;;10.11;85.50
39949;BME280;29070;48.102;-1.652;2023-02-22T10:43:48;101167.78;;;10.20;85.59
39949;BME280;29070;48.102;-1.652;2023-02-22T10:48:51;101168.22;;;10.24;85.33
39949;BME280;29070;48.102;-1.652;2023-02-22T10:53:57;101172.13;;;10.13;85.27
39949;BME280;29070;48.102;-1.652;2023-02-22T10:59:03;101163.63;;;10.11;85.32
39949;BME280;29070;48.102;-1.652;2023-02-22T11:04:18;101167.84;;;10.12;85.11
39949;BME280;29070;48.102;-1.652;2023-02-22T11:09:22;101172.75;;;10.15;85.18
39949;BME280;29070;48.102;-1.652;2023-02-22T11:14:28;101168.75;;;10.19;84.99
39949;BME280;29070;48.102;-1.652;2023-02-22T11:19:31;101171.84;;;10.23;85.05
39949;BME280;29070;48.102;-1.652;2023-02-22T11:24:31;101158.25;;;10.19;85.02
39949;BME280;29070;48.102;-1.652;2023-02-22T11:35:32;101154.66;;;10.20;85.28
39949;BME280;29070;48.102;-1.652;2023-02-22T11:40:32;101165.78;;;10.22;85.50
39949;BME280;29070;48.102;-1.652;2023-02-22T11:45:34;101166.06;;;10.27;85.51
39949;BME280;29070;48.102;-1.652;2023-02-22T11:50:56;101156.50;;;10.35;85.63
39949;BME280;29070;48.102;-1.652;2023-02-22T12:12:07;101156.63;;;10.48;85.47
39949;BME280;29070;48.102;-1.652;2023-02-22T12:23:12;101144.13;;;10.65;85.45
39949;BME280;29070;48.102;-1.652;2023-02-22T12:28:26;101147.56;;;10.65;85.25
39949;BME280;29070;48.102;-1.652;2023-02-22T12:33:33;101151.19;;;10.64;85.17
39949;BME280;29070;48.102;-1.652;2023-02-22T12:38:39;101154.44;;;10.66;84.94
39949;BME280;29070;48.102;-1.652;2023-02-22T12:43:47;101148.84;;;10.70;84.48
39949;BME280;29070;48.102;-1.652;2023-02-22T12:48:59;101153.19;;;10.62;84.23
39949;BME280;29070;48.102;-1.652;2023-02-22T12:59:24;101150.44;;;10.71;84.17
39949;BME280;29070;48.102;-1.652;2023-02-22T13:04:26;101151.97;;;10.80;84.07
39949;BME280;29070;48.102;-1.652;2023-02-22T13:09:37;101153.34;;;10.76;83.45
39949;BME280;29070;48.102;-1.652;2023-02-22T13:14:57;101153.69;;;10.73;83.42
39949;BME280;29070;48.102;-1.652;2023-02-22T13:25:15;101157.44;;;10.63;83.17
39949;BME280;29070;48.102;-1.652;2023-02-22T13:30:25;101157.34;;;10.57;83.05
39949;BME280;29070;48.102;-1.652;2023-02-22T13:56:05;101152.91;;;10.72;82.86
39949;BME280;29070;48.102;-1.652;2023-02-22T14:01:06;101150.81;;;10.67;82.47
39949;BME280;29070;48.102;-1.652;2023-02-22T14:06:09;101154.91;;;10.70;82.29
39949;BME280;29070;48.102;-1.652;2023-02-22T14:16:18;101173.31;;;10.55;81.23
39949;BME280;29070;48.102;-1.652;2023-02-22T14:21:20;101175.28;;;10.23;81.15
39949;BME280;29070;48.102;-1.652;2023-02-22T14:26:32;101186.94;;;10.06;81.26
39949;BME280;29070;48.102;-1.652;2023-02-22T14:47:05;101179.53;;;10.24;81.22
39949;BME280;29070;48.102;-1.652;2023-02-22T14:52:16;101180.03;;;10.43;81.43
39949;BME280;29070;48.102;-1.652;2023-02-22T14:57:24;101183.63;;;10.42;81.41
39949;BME280;29070;48.102;-1.652;2023-02-22T15:02:36;101183.09;;;10.32;80.68
39949;BME280;29070;48.102;-1.652;2023-02-22T15:07:39;101183.09;;;10.32;80.54
39949;BME280;29070;48.102;-1.652;2023-02-22T15:12:39;101181.88;;;10.19;79.95
39949;BME280;29070;48.102;-1.652;2023-02-22T15:17:39;101187.69;;;10.15;79.75
39949;BME280;29070;48.102;-1.652;2023-02-22T15:22:40;101197.91;;;10.09;79.26
39949;BME280;29070;48.102;-1.652;2023-02-22T15:27:44;101192.19;;;9.91;78.59
39949;BME280;29070;48.102;-1.652;2023-02-22T15:32:46;101206.72;;;9.93;78.88
39949;BME280;29070;48.102;-1.652;2023-02-22T15:37:57;101202.84;;;9.89;78.95
39949;BME280;29070;48.102;-1.652;2023-02-22T15:43:05;101209.50;;;9.77;78.53
39949;BME280;29070;48.102;-1.652;2023-02-22T15:48:09;101212.47;;;9.74;78.88
39949;BME280;29070;48.102;-1.652;2023-02-22T15:58:22;101201.81;;;9.76;78.46
39949;BME280;29070;48.102;-1.652;2023-02-22T16:03:23;101207.34;;;9.81;78.52
39949;BME280;29070;48.102;-1.652;2023-02-22T16:08:55;101209.06;;;9.88;78.28
39949;BME280;29070;48.102;-1.652;2023-02-22T16:14:03;101205.34;;;9.83;78.35
39949;BME280;29070;48.102;-1.652;2023-02-22T16:24:31;101203.03;;;9.88;78.03
39949;BME280;29070;48.102;-1.652;2023-02-22T16:29:32;101207.81;;;9.84;78.13
39949;BME280;29070;48.102;-1.652;2023-02-22T16:34:32;101218.63;;;9.81;77.63
39949;BME280;29070;48.102;-1.652;2023-02-22T16:39:33;101221.41;;;9.65;77.08
39949;BME280;29070;48.102;-1.652;2023-02-22T16:44:35;101229.97;;;9.59;77.15
39949;BME280;29070;48.102;-1.652;2023-02-22T16:49:37;101225.44;;;9.52;76.71
39949;BME280;29070;48.102;-1.652;2023-02-22T16:54:42;101225.59;;;9.51;76.60
39949;BME280;29070;48.102;-1.652;2023-02-22T16:59:44;101224.16;;;9.48;76.63
39949;BME280;29070;48.102;-1.652;2023-02-22T17:04:47;101231.41;;;9.38;76.26
39949;BME280;29070;48.102;-1.652;2023-02-22T17:09:48;101216.41;;;9.32;75.97
39949;BME280;29070;48.102;-1.652;2023-02-22T17:14:50;101229.50;;;9.32;76.05
39949;BME280;29070;48.102;-1.652;2023-02-22T17:19:51;101234.63;;;9.25;75.92
39949;BME280;29070;48.102;-1.652;2023-02-22T17:24:52;101234.97;;;9.22;75.75
39949;BME280;29070;48.102;-1.652;2023-02-22T17:29:52;101238.75;;;9.20;75.77
39949;BME280;29070;48.102;-1.652;2023-02-22T17:34:52;101252.53;;;9.13;75.75
39949;BME280;29070;48.102;-1.652;2023-02-22T17:39:53;101255.19;;;9.05;75.33
39949;BME280;29070;48.102;-1.652;2023-02-22T17:44:54;101266.81;;;9.03;75.32
39949;BME280;29070;48.102;-1.652;2023-02-22T17:49:55;101266.69;;;8.96;74.90
39949;BME280;29070;48.102;-1.652;2023-02-22T17:54:57;101269.50;;;8.94;75.41
39949;BME280;29070;48.102;-1.652;2023-02-22T17:59:58;101269.19;;;8.89;75.24
39949;BME280;29070;48.102;-1.652;2023-02-22T18:05:00;101270.63;;;8.92;75.37
39949;BME280;29070;48.102;-1.652;2023-02-22T18:10:00;101277.50;;;8.93;75.40
39949;BME280;29070;48.102;-1.652;2023-02-22T18:15:05;101284.34;;;8.94;75.33
39949;BME280;29070;48.102;-1.652;2023-02-22T18:20:07;101285.38;;;8.85;74.62
39949;BME280;29070;48.102;-1.652;2023-02-22T18:25:13;101288.31;;;8.82;75.06
39949;BME280;29070;48.102;-1.652;2023-02-22T18:30:13;101301.78;;;8.78;74.96
39949;BME280;29070;48.102;-1.652;2023-02-22T18:35:14;101293.78;;;8.72;74.71
39949;BME280;29070;48.102;-1.652;2023-02-22T18:40:14;101289.50;;;8.71;74.83
39949;BME280;29070;48.102;-1.652;2023-02-22T18:45:18;101299.16;;;8.70;74.98
39949;BME280;29070;48.102;-1.652;2023-02-22T18:50:19;101294.94;;;8.61;74.43
39949;BME280;29070;48.102;-1.652;2023-02-22T18:55:21;101309.69;;;8.54;74.44
39949;BME280;29070;48.102;-1.652;2023-02-22T19:00:21;101308.72;;;8.55;74.67
39949;BME280;29070;48.102;-1.652;2023-02-22T19:05:27;101322.44;;;8.49;74.50
39949;BME280;29070;48.102;-1.652;2023-02-22T19:10:28;101304.94;;;8.41;74.23
39949;BME280;29070;48.102;-1.652;2023-02-22T19:15:28;101320.31;;;8.36;74.29
39949;BME280;29070;48.102;-1.652;2023-02-22T19:20:29;101314.75;;;8.31;74.32
39949;BME280;29070;48.102;-1.652;2023-02-22T19:25:32;101311.00;;;8.25;73.81
39949;BME280;29070;48.102;-1.652;2023-02-22T19:30:32;101321.16;;;8.28;73.94
39949;BME280;29070;48.102;-1.652;2023-02-22T19:35:33;101321.16;;;8.28;74.22
39949;BME280;29070;48.102;-1.652;2023-02-22T19:40:33;101316.56;;;8.22;73.75
39949;BME280;29070;48.102;-1.652;2023-02-22T19:45:37;101323.75;;;8.20;73.96
39949;BME280;29070;48.102;-1.652;2023-02-22T19:50:39;101314.94;;;8.13;73.99
39949;BME280;29070;48.102;-1.652;2023-02-22T19:55:47;101313.78;;;8.07;74.01
39949;BME280;29070;48.102;-1.652;2023-02-22T20:00:48;101325.38;;;8.05;73.88
39949;BME280;29070;48.102;-1.652;2023-02-22T20:05:48;101314.28;;;7.94;73.87
39949;BME280;29070;48.102;-1.652;2023-02-22T20:10:49;101323.41;;;7.90;73.61
39949;BME280;29070;48.102;-1.652;2023-02-22T20:15:49;101319.47;;;7.78;73.55
39949;BME280;29070;48.102;-1.652;2023-02-22T20:20:49;101316.88;;;7.70;73.51
39949;BME280;29070;48.102;-1.652;2023-02-22T20:25:55;101320.78;;;7.66;73.77
39949;BME280;29070;48.102;-1.652;2023-02-22T20:30:55;101333.81;;;7.57;73.36
39949;BME280;29070;48.102;-1.652;2023-02-22T20:35:56;101313.22;;;7.46;73.32
39949;BME280;29070;48.102;-1.652;2023-02-22T20:40:57;101314.84;;;7.39;73.52
39949;BME280;29070;48.102;-1.652;2023-02-22T20:46:02;101304.66;;;7.28;73.28
39949;BME280;29070;48.102;-1.652;2023-02-22T20:51:08;101314.94;;;7.21;73.51
39949;BME280;29070;48.102;-1.652;2023-02-22T20:56:14;101327.31;;;7.11;73.65
39949;BME280;29070;48.102;-1.652;2023-02-22T21:01:17;101319.75;;;6.99;73.66
39949;BME280;29070;48.102;-1.652;2023-02-22T21:06:19;101330.81;;;6.93;73.47
39949;BME280;29070;48.102;-1.652;2023-02-22T21:11:22;101333.22;;;6.86;73.94
39949;BME280;29070;48.102;-1.652;2023-02-22T21:16:29;101332.19;;;6.79;73.89
39949;BME280;29070;48.102;-1.652;2023-02-22T21:21:30;101337.06;;;6.74;73.75
39949;BME280;29070;48.102;-1.652;2023-02-22T21:26:33;101336.53;;;6.71;73.86
39949;BME280;29070;48.102;-1.652;2023-02-22T21:31:35;101337.97;;;6.65;73.74
39949;BME280;29070;48.102;-1.652;2023-02-22T21:36:35;101339.41;;;6.59;73.69
39949;BME280;29070;48.102;-1.652;2023-02-22T21:41:37;101336.78;;;6.51;73.88
39949;BME280;29070;48.102;-1.652;2023-02-22T21:46:39;101339.97;;;6.45;73.61
39949;BME280;29070;48.102;-1.652;2023-02-22T21:51:40;101346.78;;;6.38;73.79
39949;BME280;29070;48.102;-1.652;2023-02-22T21:56:41;101342.19;;;6.32;73.95
39949;BME280;29070;48.102;-1.652;2023-02-22T22:01:45;101338.34;;;6.26;73.87
39949;BME280;29070;48.102;-1.652;2023-02-22T22:06:48;101344.47;;;6.17;73.71
39949;BME280;29070;48.102;-1.652;2023-02-22T22:11:53;101348.28;;;6.04;73.65
39949;BME280;29070;48.102;-1.652;2023-02-22T22:16:58;101361.91;;;5.98;73.63
39949;BME280;29070;48.102;-1.652;2023-02-22T22:21:59;101355.53;;;5.83;73.83
39949;BME280;29070;48.102;-1.652;2023-02-22T22:26:59;101357.94;;;5.76;73.98
39949;BME280;29070;48.102;-1.652;2023-02-22T22:32:03;101358.50;;;5.70;73.65
39949;BME280;29070;48.102;-1.652;2023-02-22T22:37:05;101354.94;;;5.53;74.02
39949;BME280;29070;48.102;-1.652;2023-02-22T22:42:05;101354.25;;;5.51;73.95
39949;BME280;29070;48.102;-1.652;2023-02-22T22:47:05;101354.44;;;5.40;74.05
39949;BME280;29070;48.102;-1.652;2023-02-22T22:52:06;101335.81;;;5.34;74.14
39949;BME280;29070;48.102;-1.652;2023-02-22T22:57:06;101343.56;;;5.26;74.15
39949;BME280;29070;48.102;-1.652;2023-02-22T23:02:08;101343.44;;;5.18;74.23
39949;BME280;29070;48.102;-1.652;2023-02-22T23:07:10;101342.38;;;5.11;74.09
39949;BME280;29070;48.102;-1.652;2023-02-22T23:12:12;101331.03;;;5.02;74.09
39949;BME280;29070;48.102;-1.652;2023-02-22T23:17:16;101346.13;;;4.99;74.18
39949;BME280;29070;48.102;-1.652;2023-02-22T23:22:30;101336.97;;;4.94;74.44
39949;BME280;29070;48.102;-1.652;2023-02-22T23:27:30;101327.97;;;4.89;74.33
39949;BME280;29070;48.102;-1.652;2023-02-22T23:32:31;101327.44;;;4.85;74.53
39949;BME280;29070;48.102;-1.652;2023-02-22T23:37:34;101323.47;;;4.81;74.40
39949;BME280;29070;48.102;-1.652;2023-02-22T23:42:34;101325.00;;;4.74;74.25
39949;BME280;29070;48.102;-1.652;2023-02-22T23:47:34;101326.81;;;4.64;74.12
39949;BME280;29070;48.102;-1.652;2023-02-22T23:52:35;101317.53;;;4.51;74.05
39949;BME280;29070;48.102;-1.652;2023-02-22T23:57:36;101318.50;;;4.41;74.22
